Time;durP1;ratioP1;P1;durP2;ratioP2;P2;SDS_P1;SDS_P2;PMS_P1;PMS_P2;Temp;Humidity;BMP_temperature;BMP_pressure;BME280_temperature;BME280_humidity;BME280_pressure;Samples;Min_cycle;Max_cycle;Signal;HPM_P1;HPM_P2
2022/11/20 00:01:32;;;;;;;9.75;5.47;;;;;;;8.55;91.08;100077.06;4970132;28;20047;-71
2022/11/20 00:04:00;;;;;;;11.52;6.68;;;;;;;8.52;90.26;100080.34;4966451;28;20059;-71
2022/11/20 00:06:28;;;;;;;12.18;6.50;;;;;;;8.44;90.38;100080.88;4972267;28;20070;-71
2022/11/20 00:08:58;;;;;;;11.65;6.38;;;;;;;8.41;91.36;100081.44;4975229;28;20050;-71
2022/11/20 00:11:27;;;;;;;10.98;6.38;;;;;;;8.32;91.31;100084.72;4968972;28;20054;-71
2022/11/20 00:13:57;;;;;;;12.18;6.28;;;;;;;8.34;92.23;100082.56;4956704;28;20054;-71
2022/11/20 00:16:29;;;;;;;12.82;7.57;;;;;;;8.30;91.42;100077.91;4962401;28;20039;-71
2022/11/20 00:18:57;;;;;;;13.00;6.45;;;;;;;8.26;91.27;100080.38;4975282;28;20493;-71
2022/11/20 00:21:27;;;;;;;10.02;6.30;;;;;;;8.23;91.12;100086.41;4956817;28;20047;-71
2022/11/20 00:23:56;;;;;;;9.05;5.97;;;;;;;8.22;92.81;100086.66;4959506;28;20038;-71
2022/11/20 00:26:26;;;;;;;10.65;6.45;;;;;;;8.13;92.49;100086.41;4975628;28;20054;-71
2022/11/20 00:28:56;;;;;;;9.98;6.05;;;;;;;8.18;90.81;100089.13;4975549;28;20754;-71
2022/11/20 00:31:25;;;;;;;8.70;5.88;;;;;;;8.20;90.76;100095.13;4957324;28;20098;-71
2022/11/20 00:33:53;;;;;;;10.27;5.93;;;;;;;8.23;90.79;100097.31;4974601;28;20053;-70
2022/11/20 00:36:23;;;;;;;12.95;6.70;;;;;;;8.13;90.58;100100.88;4975830;28;20429;-70
2022/11/20 00:38:58;;;;;;;10.20;6.22;;;;;;;8.07;91.26;100108.22;4975346;28;20049;-71
2022/11/20 00:41:27;;;;;;;9.93;6.57;;;;;;;8.02;91.13;100108.22;4957149;28;20047;-71
2022/11/20 00:43:56;;;;;;;8.63;6.22;;;;;;;8.00;91.85;100109.59;4974218;28;20450;-71
2022/11/20 00:46:26;;;;;;;10.38;6.22;;;;;;;7.97;92.63;100113.69;4975004;28;20051;-71
2022/11/20 00:48:54;;;;;;;9.32;6.15;;;;;;;7.89;91.14;100120.53;4971406;28;20051;-71
2022/11/20 00:51:24;;;;;;;8.10;5.78;;;;;;;7.94;90.79;100127.88;4972764;28;20057;-70
2022/11/20 00:53:54;;;;;;;11.13;6.28;;;;;;;7.91;91.01;100121.06;4974060;28;20062;-71
2022/11/20 00:56:22;;;;;;;9.90;6.28;;;;;;;7.83;90.62;100120.78;4975393;28;20047;-71
2022/11/20 00:58:49;;;;;;;10.98;6.35;;;;;;;7.80;89.84;100122.97;4974026;28;20059;-72
2022/11/20 01:01:26;;;;;;;9.90;6.28;;;;;;;7.75;90.37;100120.25;4973192;28;20057;-71
2022/11/20 01:03:56;;;;;;;8.88;5.28;;;;;;;7.72;91.23;100126.22;4974777;28;20497;-71
2022/11/20 01:06:25;;;;;;;12.68;5.53;;;;;;;7.66;91.64;100122.69;4974372;28;20055;-71
2022/11/20 01:08:58;;;;;;;7.90;5.30;;;;;;;7.62;92.02;100120.78;4969808;28;20047;-71
2022/11/20 01:11:28;;;;;;;7.65;5.25;;;;;;;7.59;90.25;100118.59;4974507;28;20054;-70
2022/11/20 01:13:58;;;;;;;10.07;5.95;;;;;;;7.59;89.76;100119.41;4973391;28;20061;-71
2022/11/20 01:16:37;;;;;;;7.70;4.70;;;;;;;7.56;89.74;100117.22;4973978;28;20062;-70
2022/11/20 01:19:07;;;;;;;8.00;5.10;;;;;;;7.51;89.83;100118.06;4972109;28;20051;-71
2022/11/20 01:21:38;;;;;;;8.32;4.50;;;;;;;7.60;89.79;100123.78;4973565;28;20516;-71
2022/11/20 01:24:08;;;;;;;7.65;4.75;;;;;;;7.71;89.04;100121.88;4973442;28;20054;-71
2022/11/20 01:26:38;;;;;;;7.13;4.47;;;;;;;7.68;87.64;100121.59;4973320;28;20047;-71
2022/11/20 01:29:09;;;;;;;7.60;4.55;;;;;;;7.74;87.73;100112.34;4974535;28;20066;-71
2022/11/20 01:31:37;;;;;;;6.60;4.80;;;;;;;7.73;89.14;100121.59;4973372;28;20051;-71
2022/11/20 01:34:08;;;;;;;8.38;4.78;;;;;;;7.66;89.22;100121.84;4973504;28;20043;-71
2022/11/20 01:36:37;;;;;;;10.70;4.53;;;;;;;7.62;89.49;100123.50;4973396;28;20474;-71
2022/11/20 01:39:11;;;;;;;6.63;4.40;;;;;;;7.64;88.07;100121.31;4954208;28;20490;-71
2022/11/20 01:44:53;;;;;;;7.40;4.30;;;;;;;7.82;86.13;100128.13;4974317;28;20047;-71
2022/11/20 01:47:30;;;;;;;6.50;4.28;;;;;;;7.71;87.61;100129.22;4967489;28;20055;-71
2022/11/20 01:50:14;;;;;;;5.10;4.07;;;;;;;7.58;88.59;100131.38;4954897;28;20058;-71
2022/11/20 01:53:02;;;;;;;8.18;4.13;;;;;;;7.51;87.67;100134.38;4964843;28;20043;-71
2022/11/20 01:55:33;;;;;;;5.32;4.15;;;;;;;7.47;88.71;100129.72;4968862;28;20058;-71
2022/11/20 01:58:03;;;;;;;8.13;4.35;;;;;;;7.32;89.31;100135.97;4954427;28;20414;-70
2022/11/20 02:00:31;;;;;;;5.57;3.90;;;;;;;7.40;90.94;100127.28;4954291;28;20058;-71
2022/11/20 02:03:05;;;;;;;5.80;4.50;;;;;;;7.32;89.17;100128.63;4967590;28;20062;-71
2022/11/20 02:05:39;;;;;;;6.38;4.07;;;;;;;7.28;90.19;100121.28;4961479;28;20055;-71
2022/11/20 02:08:07;;;;;;;7.22;4.15;;;;;;;7.23;91.10;100120.16;4954827;29;20054;-71
2022/11/20 02:10:35;;;;;;;6.65;3.85;;;;;;;7.21;90.62;100122.34;4954630;29;20054;-71
2022/11/20 02:15:50;;;;;;;5.93;4.32;;;;;;;7.16;89.99;100119.63;4959535;28;20059;-71
2022/11/20 02:18:20;;;;;;;7.07;4.40;;;;;;;7.17;89.05;100121.25;4953754;28;20398;-71
2022/11/20 02:21:06;;;;;;;6.72;4.65;;;;;;;7.15;90.06;100120.72;4964683;28;20058;-71
2022/11/20 02:23:43;;;;;;;8.98;4.75;;;;;;;7.11;90.01;100125.03;4972657;28;20059;-71
2022/11/20 02:26:14;;;;;;;8.25;4.70;;;;;;;7.13;90.95;100120.13;4956632;28;20059;-71
2022/11/20 02:28:42;;;;;;;7.93;4.55;;;;;;;7.08;90.17;100120.94;4952346;29;20062;-71
2022/11/20 02:31:09;;;;;;;6.93;4.13;;;;;;;7.05;90.18;100123.41;4966162;28;20054;-71
2022/11/20 02:33:37;;;;;;;6.68;4.15;;;;;;;6.95;89.89;100118.75;4973693;28;20397;-71
2022/11/20 02:36:07;;;;;;;4.88;3.33;;;;;;;6.95;89.80;100124.19;4972946;28;20043;-71
2022/11/20 02:38:35;;;;;;;7.72;4.05;;;;;;;6.95;89.98;100119.53;4973649;28;20425;-71
2022/11/20 02:41:03;;;;;;;5.82;4.05;;;;;;;6.96;90.05;100125.81;4972475;28;20058;-71
2022/11/20 02:43:31;;;;;;;5.18;3.42;;;;;;;7.01;89.82;100128.56;4953380;28;20055;-71
2022/11/20 02:45:59;;;;;;;5.68;3.50;;;;;;;6.99;88.33;100131.53;4954307;28;20047;-71
2022/11/20 02:48:26;;;;;;;6.50;4.13;;;;;;;7.02;88.56;100135.63;4953999;28;20070;-71
2022/11/20 02:51:00;;;;;;;5.60;3.67;;;;;;;6.95;88.26;100130.41;4969177;28;20524;-71
2022/11/20 02:53:28;;;;;;;8.23;3.70;;;;;;;7.03;88.57;100129.09;4970149;28;20486;-71
2022/11/20 02:55:56;;;;;;;5.47;3.80;;;;;;;7.05;89.11;100118.78;4960292;28;20058;-71
2022/11/20 02:58:23;;;;;;;6.13;3.70;;;;;;;7.00;89.15;100126.91;4972805;28;20081;-71
2022/11/20 03:00:52;;;;;;;6.32;3.60;;;;;;;6.98;88.86;100127.19;4967636;28;20413;-71
2022/11/20 03:03:20;;;;;;;6.43;3.92;;;;;;;6.96;89.42;100125.81;4972116;28;20047;-71
2022/11/20 03:05:47;;;;;;;6.05;3.75;;;;;;;6.94;90.29;100117.09;4971887;28;20060;-71
2022/11/20 03:08:15;;;;;;;6.72;4.20;;;;;;;6.86;89.55;100123.88;4972828;28;20051;-71
2022/11/20 03:10:43;;;;;;;5.88;4.07;;;;;;;6.84;89.52;100131.47;4972643;28;20039;-71
2022/11/20 03:13:10;;;;;;;7.80;4.53;;;;;;;6.76;90.24;100126.53;4972181;28;20386;-71
2022/11/20 03:15:38;;;;;;;4.63;3.45;;;;;;;6.88;88.96;100124.41;4962251;28;20499;-71
2022/11/20 03:18:06;;;;;;;5.22;3.40;;;;;;;6.85;89.79;100125.75;4953131;28;20491;-71
2022/11/20 03:20:34;;;;;;;6.18;3.97;;;;;;;6.84;89.62;100120.59;4961539;28;20050;-71
2022/11/20 03:23:02;;;;;;;3.92;3.45;;;;;;;6.75;88.67;100125.72;4972086;28;20057;-71
2022/11/20 03:25:30;;;;;;;6.38;4.38;;;;;;;6.74;89.21;100126.00;4970973;28;20058;-71
2022/11/20 03:27:57;;;;;;;6.70;4.18;;;;;;;6.57;89.63;100136.00;4972695;28;20055;-71
2022/11/20 03:30:25;;;;;;;5.13;3.60;;;;;;;6.69;89.92;100137.66;4965919;28;20047;-71
2022/11/20 03:32:57;;;;;;;5.53;4.40;;;;;;;6.70;89.26;100139.31;4966531;28;20387;-71
2022/11/20 03:35:25;;;;;;;5.70;3.35;;;;;;;6.70;90.13;100140.13;4972164;28;20047;-71
2022/11/20 03:37:53;;;;;;;8.18;3.55;;;;;;;6.67;88.54;100146.09;4972741;28;20050;-71
2022/11/20 03:40:21;;;;;;;4.70;3.35;;;;;;;6.64;86.11;100141.19;4971295;28;20042;-71
2022/11/20 03:42:49;;;;;;;5.07;3.35;;;;;;;6.63;88.01;100134.09;4972545;28;20051;-71
2022/11/20 03:45:18;;;;;;;4.00;3.13;;;;;;;6.68;87.86;100142.28;4972190;28;20059;-72
2022/11/20 03:47:46;;;;;;;3.55;3.17;;;;;;;6.71;86.47;100149.91;4972144;28;20065;-70
2022/11/20 03:50:14;;;;;;;5.03;3.47;;;;;;;6.76;84.68;100145.59;4964599;28;20047;-71
2022/11/20 03:52:42;;;;;;;3.70;3.20;;;;;;;6.77;85.86;100148.03;4963365;28;20054;-71
2022/11/20 03:55:10;;;;;;;5.82;3.20;;;;;;;6.78;85.47;100157.00;4972571;28;20059;-71
2022/11/20 03:57:38;;;;;;;4.68;3.08;;;;;;;6.76;85.30;100164.63;4972086;28;20497;-71
2022/11/20 04:00:06;;;;;;;4.28;2.97;;;;;;;6.75;86.38;100169.22;4967123;28;20062;-71
2022/11/20 04:02:34;;;;;;;4.35;3.42;;;;;;;6.66;86.40;100154.50;4969245;28;20054;-71
2022/11/20 04:05:01;;;;;;;5.05;3.08;;;;;;;6.56;86.79;100166.16;4970809;28;20055;-71
2022/11/20 04:07:29;;;;;;;5.57;3.53;;;;;;;6.66;86.33;100171.66;4955742;28;20498;-71
2022/11/20 04:09:57;;;;;;;4.93;3.30;;;;;;;6.64;87.57;100173.00;4959255;28;20047;-71
2022/11/20 04:12:25;;;;;;;6.53;3.42;;;;;;;6.69;87.09;100179.28;4975245;28;20078;-71
2022/11/20 04:14:52;;;;;;;4.10;3.05;;;;;;;6.77;87.34;100182.56;4975442;28;20073;-72
2022/11/20 04:17:20;;;;;;;3.95;3.05;;;;;;;6.71;87.10;100176.31;4975713;28;20059;-71
2022/11/20 04:19:48;;;;;;;7.47;3.53;;;;;;;6.70;87.22;100177.38;4974199;28;20051;-72
2022/11/20 04:22:16;;;;;;;5.53;3.53;;;;;;;6.74;87.37;100173.03;4962678;28;20043;-71
2022/11/20 04:24:44;;;;;;;6.97;3.97;;;;;;;6.75;88.00;100179.31;4974717;28;20051;-71
2022/11/20 04:27:11;;;;;;;5.45;3.42;;;;;;;6.67;86.77;100184.16;4975223;28;20387;-71
2022/11/20 04:29:39;;;;;;;5.95;3.78;;;;;;;6.64;88.94;100183.88;4974589;28;20073;-71
2022/11/20 04:32:07;;;;;;;5.70;3.72;;;;;;;6.56;88.46;100183.28;4974341;28;20054;-71
2022/11/20 04:34:35;;;;;;;5.70;4.05;;;;;;;6.72;87.72;100175.22;4975278;28;20054;-71
2022/11/20 04:37:02;;;;;;;5.63;3.53;;;;;;;6.66;88.34;100182.53;4975116;28;20051;-70
2022/11/20 04:39:30;;;;;;;5.20;3.15;;;;;;;6.58;87.92;100175.69;4973532;28;20062;-71
2022/11/20 04:44:44;;;;;;;5.07;3.40;;;;;;;6.51;88.49;100174.28;4975381;28;20058;-71
2022/11/20 04:47:12;;;;;;;4.22;3.33;;;;;;;6.47;89.22;100178.59;4974056;28;20564;-71
2022/11/20 04:49:39;;;;;;;4.15;3.25;;;;;;;6.44;87.98;100180.75;4974158;28;20058;-70
2022/11/20 04:52:07;;;;;;;6.13;3.60;;;;;;;6.43;87.96;100178.31;4960339;28;20050;-71
2022/11/20 04:54:35;;;;;;;3.78;3.10;;;;;;;6.38;88.80;100179.09;4974343;28;20051;-70
2022/11/20 04:57:03;;;;;;;5.50;3.83;;;;;;;6.30;89.73;100168.69;4959312;28;20059;-71
2022/11/20 04:59:31;;;;;;;5.90;3.38;;;;;;;6.23;90.26;100176.25;4955490;28;20055;-71
2022/11/20 05:01:58;;;;;;;3.80;3.10;;;;;;;6.27;90.40;100182.81;4958719;28;20046;-71
2022/11/20 05:04:26;;;;;;;6.13;3.60;;;;;;;6.22;91.01;100189.03;4955699;28;20055;-71
2022/11/20 05:06:54;;;;;;;5.70;3.70;;;;;;;6.13;92.08;100186.00;4954582;28;20076;-71
2022/11/20 05:09:22;;;;;;;4.72;3.42;;;;;;;6.07;91.35;100186.19;4965375;28;20058;-71
2022/11/20 05:11:50;;;;;;;5.82;3.72;;;;;;;6.12;91.70;100181.59;4974109;28;20053;-71
2022/11/20 05:14:18;;;;;;;6.43;3.67;;;;;;;6.13;92.26;100193.31;4974072;28;20043;-71
2022/11/20 05:16:46;;;;;;;4.35;3.20;;;;;;;6.15;91.89;100194.69;4974066;28;20057;-71
2022/11/20 05:19:14;;;;;;;5.05;3.60;;;;;;;6.14;92.84;100197.66;4969748;28;20048;-70
2022/11/20 05:21:42;;;;;;;4.70;3.70;;;;;;;6.09;92.87;100198.44;4974002;28;20051;-71
2022/11/20 05:24:10;;;;;;;4.85;3.33;;;;;;;6.04;92.97;100192.97;4974769;28;20051;-71
2022/11/20 05:26:38;;;;;;;5.38;3.72;;;;;;;6.06;93.05;100201.66;4974578;28;20043;-71
2022/11/20 05:29:05;;;;;;;6.13;4.13;;;;;;;6.05;94.20;100197.31;4971696;28;20051;-72
2022/11/20 05:31:33;;;;;;;5.03;3.63;;;;;;;5.90;91.54;100204.22;4968319;28;20051;-71
2022/11/20 05:34:01;;;;;;;4.93;3.92;;;;;;;5.82;91.31;100207.41;4955504;28;20047;-71
2022/11/20 05:36:30;;;;;;;7.05;3.75;;;;;;;5.80;91.64;100209.56;4960418;28;20062;-71
2022/11/20 05:38:58;;;;;;;5.50;3.70;;;;;;;5.79;91.80;100210.66;4958345;28;20061;-70
2022/11/20 05:41:29;;;;;;;6.13;4.25;;;;;;;5.73;92.31;100211.66;4973534;28;20055;-71
2022/11/20 05:43:57;;;;;;;6.05;4.05;;;;;;;5.75;91.93;100217.66;4973616;28;20047;-71
2022/11/20 05:46:26;;;;;;;5.25;3.97;;;;;;;5.67;91.65;100215.41;4961757;28;20054;-70
2022/11/20 05:48:57;;;;;;;5.63;4.07;;;;;;;5.68;91.55;100223.31;4974312;28;20394;-71
2022/11/20 05:51:26;;;;;;;5.30;3.60;;;;;;;5.63;89.94;100234.91;4974326;28;20054;-71
2022/11/20 05:53:56;;;;;;;6.18;4.20;;;;;;;5.56;90.60;100231.59;4974258;28;20054;-71
2022/11/20 05:56:24;;;;;;;6.57;3.72;;;;;;;5.55;89.85;100227.25;4972742;28;20055;-71
2022/11/20 05:58:51;;;;;;;6.32;3.50;;;;;;;5.49;90.54;100230.97;4972561;28;20506;-71
2022/11/20 06:01:22;;;;;;;4.88;3.38;;;;;;;5.49;91.15;100239.91;4962961;28;20047;-70
2022/11/20 06:03:52;;;;;;;5.57;3.88;;;;;;;5.51;90.31;100243.22;4961961;28;20097;-70
2022/11/20 06:06:20;;;;;;;6.55;4.20;;;;;;;5.51;90.30;100237.78;4970871;28;20051;-71
2022/11/20 06:08:48;;;;;;;5.85;4.03;;;;;;;5.46;90.00;100248.59;4958934;28;20063;-70
2022/11/20 06:11:17;;;;;;;6.57;4.05;;;;;;;5.41;90.98;100247.69;4953360;28;20054;-71
2022/11/20 06:13:46;;;;;;;6.35;3.90;;;;;;;5.51;91.04;100250.53;4954016;29;20051;-71
2022/11/20 06:16:16;;;;;;;4.47;3.53;;;;;;;5.51;90.73;100245.09;4953654;28;20054;-70
2022/11/20 06:18:44;;;;;;;5.80;3.50;;;;;;;5.52;90.35;100246.72;4971132;28;20521;-71
2022/11/20 06:21:20;;;;;;;5.90;3.83;;;;;;;5.49;90.43;100258.91;4961967;28;20035;-71
2022/11/20 06:23:49;;;;;;;6.38;4.07;;;;;;;5.39;91.00;100253.38;4956060;28;20059;-69
2022/11/20 06:26:23;;;;;;;5.25;4.10;;;;;;;5.37;90.97;100256.34;4972632;28;20073;-71
2022/11/20 06:28:52;;;;;;;5.57;3.85;;;;;;;5.36;92.21;100271.00;4964185;28;20059;-71
2022/11/20 06:31:23;;;;;;;8.35;5.90;;;;;;;5.20;91.25;100267.28;4953666;29;20043;-71
2022/11/20 06:33:51;;;;;;;6.15;4.05;;;;;;;5.18;91.99;100274.03;4954036;28;20058;-70
2022/11/20 06:36:22;;;;;;;8.65;4.50;;;;;;;5.29;92.06;100275.78;4954191;29;20047;-71
2022/11/20 06:38:50;;;;;;;6.85;4.55;;;;;;;5.30;92.06;100282.84;4953990;28;20055;-71
2022/11/20 06:41:20;;;;;;;7.88;4.40;;;;;;;5.24;90.84;100273.00;4965031;28;20051;-70
2022/11/20 06:43:48;;;;;;;12.65;4.10;;;;;;;5.28;91.01;100273.31;4973136;28;20062;-71
2022/11/20 06:46:19;;;;;;;5.22;4.30;;;;;;;5.27;91.19;100283.34;4972592;28;20054;-71
2022/11/20 06:48:48;;;;;;;5.60;4.38;;;;;;;5.38;90.23;100276.97;4973211;28;20070;-70
2022/11/20 06:51:17;;;;;;;6.07;3.90;;;;;;;5.36;89.37;100281.03;4972909;28;20047;-70
2022/11/20 06:53:45;;;;;;;5.90;3.92;;;;;;;5.37;89.75;100283.47;4973010;28;20405;-70
2022/11/20 06:56:13;;;;;;;4.13;3.50;;;;;;;5.45;89.33;100284.09;4973055;28;20042;-70
2022/11/20 06:58:40;;;;;;;6.45;3.58;;;;;;;5.47;88.27;100299.06;4971865;28;20053;-71
2022/11/20 07:01:13;;;;;;;5.53;4.13;;;;;;;5.54;87.30;100304.31;4972654;28;20038;-71
2022/11/20 07:03:42;;;;;;;9.50;6.40;;;;;;;5.61;87.67;100302.22;4973150;28;20050;-72
2022/11/20 07:06:10;;;;;;;8.55;5.60;;;;;;;5.72;86.78;100308.59;4971156;28;20047;-72
2022/11/20 07:08:38;;;;;;;5.75;4.20;;;;;;;5.83;87.13;100306.81;4962817;28;20067;-72
2022/11/20 07:11:07;;;;;;;5.43;3.78;;;;;;;5.90;85.42;100310.16;4955792;28;20039;-71
2022/11/20 07:13:35;;;;;;;6.93;3.92;;;;;;;5.96;85.18;100312.94;4961319;28;20067;-70
2022/11/20 07:16:07;;;;;;;5.95;4.10;;;;;;;6.03;84.84;100317.09;4953132;28;20128;-71
2022/11/20 07:18:35;;;;;;;6.18;4.03;;;;;;;5.99;84.23;100326.00;4954470;28;20059;-70
2022/11/20 07:21:05;;;;;;;4.82;3.60;;;;;;;6.15;84.19;100330.53;4953773;28;20047;-70
2022/11/20 07:23:34;;;;;;;5.57;3.38;;;;;;;6.40;84.24;100320.19;4957418;28;20031;-71
2022/11/20 07:26:06;;;;;;;7.95;3.60;;;;;;;6.51;83.02;100331.97;4961399;28;20535;-72
2022/11/20 07:28:35;;;;;;;4.53;3.25;;;;;;;6.57;82.19;100330.91;4966226;28;20062;-71
2022/11/20 07:31:04;;;;;;;5.25;3.28;;;;;;;6.56;81.41;100340.16;4967827;28;20047;-71
2022/11/20 07:33:32;;;;;;;4.70;3.58;;;;;;;6.71;81.59;100342.19;4953615;28;20055;-71
2022/11/20 07:36:00;;;;;;;6.25;3.17;;;;;;;7.01;82.43;100339.94;4954125;28;20043;-71
2022/11/20 07:38:30;;;;;;;4.85;3.00;;;;;;;7.15;79.56;100338.41;4957671;28;20059;-71
2022/11/20 07:40:57;;;;;;;5.28;2.83;;;;;;;7.09;79.20;100337.56;4973186;28;20043;-70
2022/11/20 07:43:25;;;;;;;3.70;2.40;;;;;;;7.34;79.08;100335.25;4958186;28;20444;-70
2022/11/20 07:45:57;;;;;;;5.88;2.83;;;;;;;7.60;79.37;100341.63;4959623;28;20050;-77
2022/11/20 07:48:26;;;;;;;2.45;2.22;;;;;;;7.74;79.23;100347.41;4975960;28;20050;-70
2022/11/20 07:50:55;;;;;;;3.05;2.15;;;;;;;7.97;77.40;100349.94;4976319;28;20047;-70
2022/11/20 07:53:23;;;;;;;4.35;2.90;;;;;;;8.18;75.72;100348.09;4973275;28;20051;-70
2022/11/20 07:55:52;;;;;;;3.70;2.97;;;;;;;8.39;74.79;100350.84;4962170;28;20047;-71
2022/11/20 07:58:21;;;;;;;3.53;2.20;;;;;;;8.53;73.63;100353.88;4970273;28;20057;-71
2022/11/20 08:00:49;;;;;;;3.90;2.55;;;;;;;8.71;72.98;100355.25;4957316;28;20055;-71
2022/11/20 08:03:17;;;;;;;3.38;2.45;;;;;;;9.05;71.34;100351.94;4976180;28;20043;-70
2022/11/20 08:05:51;;;;;;;2.92;2.13;;;;;;;9.24;72.01;100356.84;4974804;28;20051;-71
2022/11/20 08:08:19;;;;;;;6.60;2.45;;;;;;;9.37;71.28;100359.00;4975108;28;20051;-72
2022/11/20 08:10:47;;;;;;;2.42;2.20;;;;;;;9.47;71.10;100355.41;4973126;28;20054;-71
2022/11/20 08:16:01;;;;;;;3.00;2.25;;;;;;;9.78;69.21;100354.50;4961796;28;20058;-71
2022/11/20 08:18:29;;;;;;;3.25;2.30;;;;;;;10.04;68.08;100366.13;4975174;28;20047;-72
2022/11/20 08:21:03;;;;;;;1.95;1.75;;;;;;;9.91;66.23;100362.06;4975501;28;20055;-72
2022/11/20 08:23:31;;;;;;;2.55;2.20;;;;;;;9.97;68.74;100367.53;4975220;28;20058;-75
2022/11/20 08:25:59;;;;;;;4.28;2.42;;;;;;;10.53;72.14;100365.56;4974918;28;20059;-75
2022/11/20 08:28:27;;;;;;;4.28;2.17;;;;;;;10.50;65.59;100364.22;4975201;28;20054;-71
2022/11/20 08:31:02;;;;;;;2.20;2.00;;;;;;;10.69;63.63;100367.09;4969273;28;20409;-71
2022/11/20 08:33:32;;;;;;;5.25;2.35;;;;;;;10.68;64.69;100356.41;4975580;28;20076;-72
2022/11/20 08:36:01;;;;;;;2.47;2.15;;;;;;;10.88;64.41;100360.91;4973962;28;20502;-71
2022/11/20 08:38:30;;;;;;;4.45;2.58;;;;;;;10.95;62.99;100363.31;4973692;28;20054;-72
2022/11/20 08:43:46;;;;;;;3.22;2.42;;;;;;;11.02;64.38;100364.63;4974783;28;20058;-71
2022/11/20 08:46:14;;;;;;;3.65;2.42;;;;;;;11.26;64.21;100366.59;4965954;28;20132;-71
2022/11/20 08:48:42;;;;;;;3.50;2.28;;;;;;;11.39;63.03;100375.22;4955857;28;20120;-71
2022/11/20 08:51:11;;;;;;;3.20;2.05;;;;;;;11.83;62.66;100376.06;4955687;28;20051;-72
2022/11/20 08:53:39;;;;;;;3.00;2.40;;;;;;;12.07;61.17;100383.47;4955249;28;20066;-71
2022/11/20 08:56:09;;;;;;;3.25;2.67;;;;;;;12.07;59.33;100389.78;4955943;29;20059;-71
2022/11/20 08:58:38;;;;;;;19.10;5.93;;;;;;;12.18;57.90;100386.91;4955726;29;20502;-72
2022/11/20 09:01:27;;;;;;;13.55;5.28;;;;;;;12.61;60.82;100392.31;4955799;28;20066;-68
2022/11/20 09:03:59;;;;;;;5.20;2.63;;;;;;;12.85;56.12;100391.38;4974665;28;20509;-72
2022/11/20 09:06:27;;;;;;;5.03;2.45;;;;;;;12.79;57.81;100400.00;4974813;28;20043;-73
2022/11/20 09:08:56;;;;;;;4.05;2.28;;;;;;;12.96;58.09;100391.22;4974811;28;20042;-72
2022/11/20 09:11:44;;;;;;;2.10;1.83;;;;;;;13.01;57.69;100391.94;4973758;28;20051;-70
2022/11/20 09:14:12;;;;;;;2.60;1.63;;;;;;;13.14;57.37;100389.50;4963814;28;20035;-71
2022/11/20 09:16:40;;;;;;;3.45;1.98;;;;;;;13.18;58.41;100393.31;4973872;28;20051;-71
2022/11/20 09:19:08;;;;;;;3.03;1.63;;;;;;;13.24;58.60;100400.34;4970513;28;20039;-71
2022/11/20 09:21:55;;;;;;;3.42;1.77;;;;;;;13.33;55.89;100405.94;4975587;28;20509;-71
2022/11/20 09:24:27;;;;;;;2.20;1.83;;;;;;;13.34;57.19;100404.81;4964692;28;20473;-69
2022/11/20 09:26:55;;;;;;;1.48;1.17;;;;;;;13.25;55.18;100399.22;4986692;28;20065;-69
2022/11/20 09:29:23;;;;;;;3.42;2.00;;;;;;;13.36;52.75;100402.59;4961157;28;20053;-69
2022/11/20 09:31:51;;;;;;;1.95;1.17;;;;;;;13.57;49.25;100399.47;4973717;28;20055;-68
2022/11/20 09:34:19;;;;;;;1.65;1.35;;;;;;;13.63;52.00;100403.75;4973366;28;20512;-69
2022/11/20 09:36:46;;;;;;;2.17;1.80;;;;;;;13.74;54.05;100400.81;4974359;28;20065;-69
2022/11/20 09:39:15;;;;;;;2.17;1.63;;;;;;;13.90;51.48;100390.31;4973832;28;20039;-68
2022/11/20 09:42:13;;;;;;;1.45;1.23;;;;;;;14.01;52.75;100402.72;4974075;28;20073;-69
2022/11/20 09:44:41;;;;;;;2.13;1.63;;;;;;;14.01;50.86;100404.66;4974126;28;20065;-69
2022/11/20 09:47:46;;;;;;;1.77;1.25;;;;;;;14.00;49.79;100398.34;4973491;28;20489;-69
2022/11/20 09:50:43;;;;;;;2.13;1.33;;;;;;;14.03;51.70;100396.94;4973523;28;20055;-69
2022/11/20 09:53:34;;;;;;;3.85;1.83;;;;;;;14.37;51.57;100387.34;4953010;28;20302;-69
2022/11/20 09:56:04;;;;;;;1.73;1.50;;;;;;;14.03;55.29;100391.44;4973792;28;20050;-69
2022/11/20 09:58:44;;;;;;;2.30;1.50;;;;;;;13.90;54.24;100391.13;4974075;28;20054;-69
2022/11/20 10:01:16;;;;;;;3.47;1.83;;;;;;;14.16;54.29;100390.59;4972770;28;20065;-69
2022/11/20 10:03:58;;;;;;;3.55;2.13;;;;;;;14.12;55.14;100395.06;4973181;28;20046;-69
2022/11/20 10:06:31;;;;;;;2.42;2.15;;;;;;;14.11;55.15;100390.69;4973864;28;20051;-69
2022/11/20 10:09:11;;;;;;;3.03;1.85;;;;;;;14.18;56.29;100380.06;4972981;28;20055;-72
2022/11/20 10:11:47;;;;;;;3.00;2.08;;;;;;;14.21;55.96;100379.47;4973445;28;20062;-70
2022/11/20 10:14:19;;;;;;;2.70;2.13;;;;;;;14.36;55.71;100372.78;4970869;28;20054;-70
2022/11/20 10:17:03;;;;;;;3.78;2.30;;;;;;;14.16;56.36;100365.00;4971514;28;20074;-70
2022/11/20 10:19:45;;;;;;;2.17;1.95;;;;;;;14.58;54.65;100371.19;4970812;28;20043;-70
2022/11/20 10:22:37;;;;;;;2.97;2.50;;;;;;;14.90;54.50;100363.00;4971521;28;20055;-70
2022/11/20 10:25:19;;;;;;;3.08;2.17;;;;;;;15.04;54.10;100362.91;4972727;28;20047;-72
2022/11/20 10:27:56;;;;;;;4.72;2.50;;;;;;;15.09;54.61;100368.31;4972986;28;20062;-72
2022/11/20 10:30:25;;;;;;;3.60;2.40;;;;;;;14.76;55.11;100377.66;4969796;28;20398;-69
2022/11/20 10:32:56;;;;;;;3.83;2.30;;;;;;;14.57;55.82;100379.75;4973617;28;20046;-74
2022/11/20 10:35:29;;;;;;;4.85;2.10;;;;;;;14.33;57.17;100376.16;4973302;28;20551;-74
2022/11/20 10:38:05;;;;;;;4.22;2.10;;;;;;;14.27;56.68;100373.84;4962403;28;20069;-73
2022/11/20 10:40:45;;;;;;;4.70;2.10;;;;;;;14.10;57.85;100378.06;4973608;28;20050;-74
2022/11/20 10:43:23;;;;;;;3.72;1.88;;;;;;;14.17;58.41;100366.66;4972808;28;20063;-74
2022/11/20 10:45:58;;;;;;;5.57;2.40;;;;;;;14.10;57.68;100372.56;4972840;28;20058;-74
2022/11/20 10:48:28;;;;;;;4.00;2.50;;;;;;;14.13;58.27;100366.41;4973444;28;20050;-74
2022/11/20 10:51:09;;;;;;;3.35;2.35;;;;;;;13.90;60.82;100358.13;4973271;28;20077;-74
2022/11/20 10:54:11;;;;;;;3.67;2.85;;;;;;;14.02;59.31;100357.59;4973393;28;20051;-74
2022/11/20 10:56:53;;;;;;;2.55;2.35;;;;;;;14.01;59.13;100358.72;4965683;28;20050;-74
2022/11/20 10:59:27;;;;;;;3.33;2.10;;;;;;;14.00;59.01;100354.34;4973378;28;20039;-73
2022/11/20 11:01:55;;;;;;;4.60;2.40;;;;;;;14.11;58.11;100354.91;4971858;28;20054;-74
2022/11/20 11:04:34;;;;;;;4.40;2.17;;;;;;;14.12;58.96;100351.03;4972420;28;20047;-74
2022/11/20 11:07:15;;;;;;;4.07;2.35;;;;;;;14.07;58.27;100351.16;4971877;28;20418;-73
2022/11/20 11:09:49;;;;;;;3.13;2.10;;;;;;;14.18;58.13;100354.50;4973058;28;20047;-74
2022/11/20 11:12:18;;;;;;;3.03;2.42;;;;;;;14.28;57.84;100354.28;4973152;28;20057;-70
2022/11/20 11:14:51;;;;;;;5.72;2.75;;;;;;;14.52;58.10;100353.97;4976855;28;20043;-70
2022/11/20 11:17:28;;;;;;;3.17;2.55;;;;;;;14.69;57.55;100346.97;4976492;28;20109;-70
2022/11/20 11:20:01;;;;;;;4.10;2.67;;;;;;;15.04;56.38;100351.91;4976155;28;20047;-70
2022/11/20 11:22:32;;;;;;;3.60;2.27;;;;;;;15.12;55.68;100342.88;4976764;28;20378;-86
2022/11/20 11:25:00;;;;;;;6.70;2.40;;;;;;;15.04;56.21;100338.94;4976589;28;20306;-71
2022/11/20 11:27:28;;;;;;;4.22;2.67;;;;;;;14.86;56.54;100331.72;4975214;28;20062;-71
2022/11/20 11:30:17;;;;;;;4.97;2.78;;;;;;;14.84;56.35;100333.94;4976068;28;20054;-70
2022/11/20 11:32:45;;;;;;;6.10;2.30;;;;;;;14.77;57.56;100335.22;4976246;28;20047;-70
2022/11/20 11:35:22;;;;;;;3.28;2.40;;;;;;;14.68;57.45;100334.34;4976440;28;20569;-71
2022/11/20 11:37:53;;;;;;;4.10;2.78;;;;;;;14.98;57.21;100340.22;4975826;28;20375;-71
2022/11/20 11:40:22;;;;;;;5.97;2.40;;;;;;;15.32;54.76;100330.47;4976324;28;20062;-70
2022/11/20 11:43:04;;;;;;;2.90;2.08;;;;;;;15.66;55.04;100332.84;4975736;28;20059;-70
2022/11/20 11:45:32;;;;;;;7.20;3.15;;;;;;;15.83;53.80;100334.81;4975579;28;20051;-71
2022/11/20 11:48:03;;;;;;;7.50;3.28;;;;;;;15.73;54.17;100327.66;4975377;28;20053;-70
2022/11/20 11:50:31;;;;;;;4.43;2.90;;;;;;;15.81;55.73;100321.38;4976158;28;20046;-71
2022/11/20 11:53:02;;;;;;;5.32;3.38;;;;;;;15.78;55.70;100327.53;4975852;28;20508;-71
2022/11/20 11:55:33;;;;;;;7.50;5.00;;;;;;;15.79;58.58;100328.34;4975655;28;20046;-71
2022/11/20 11:58:09;;;;;;;7.80;4.93;;;;;;;15.49;60.03;100322.59;4975695;28;20055;-71
2022/11/20 12:00:41;;;;;;;7.78;5.10;;;;;;;15.56;60.08;100317.41;4976159;28;20047;-70